sensor_id;sensor_type;location;lat;lon;timestamp;temperature;humidity
7970;DHT22;4030;52.362;9.206;2022-12-29T00:01:55;10.40;95.80
7970;DHT22;4030;52.362;9.206;2022-12-29T00:04:21;10.20;95.70
7970;DHT22;4030;52.362;9.206;2022-12-29T00:06:47;10.10;95.60
7970;DHT22;4030;52.362;9.206;2022-12-29T00:09:15;10.00;95.50
7970;DHT22;4030;52.362;9.206;2022-12-29T00:11:41;10.30;95.80
7970;DHT22;4030;52.362;9.206;2022-12-29T00:14:09;10.10;95.60
7970;DHT22;4030;52.362;9.206;2022-12-29T00:19:20;10.20;95.60
7970;DHT22;4030;52.362;9.206;2022-12-29T00:22:04;10.10;95.70
7970;DHT22;4030;52.362;9.206;2022-12-29T00:24:49;10.30;95.80
7970;DHT22;4030;52.362;9.206;2022-12-29T00:27:27;10.20;95.70
7970;DHT22;4030;52.362;9.206;2022-12-29T00:30:15;10.40;95.80
7970;DHT22;4030;52.362;9.206;2022-12-29T00:33:00;10.20;95.60
7970;DHT22;4030;52.362;9.206;2022-12-29T00:35:53;10.10;95.60
7970;DHT22;4030;52.362;9.206;2022-12-29T00:38:21;10.00;95.60
7970;DHT22;4030;52.362;9.206;2022-12-29T00:46:35;10.40;95.80
7970;DHT22;4030;52.362;9.206;2022-12-29T00:49:02;10.30;95.80
7970;DHT22;4030;52.362;9.206;2022-12-29T00:51:47;10.30;95.70
7970;DHT22;4030;52.362;9.206;2022-12-29T00:54:14;10.40;95.80
7970;DHT22;4030;52.362;9.206;2022-12-29T00:56:40;10.40;95.90
7970;DHT22;4030;52.362;9.206;2022-12-29T00:59:08;10.10;95.70
7970;DHT22;4030;52.362;9.206;2022-12-29T01:01:36;10.40;95.80
7970;DHT22;4030;52.362;9.206;2022-12-29T01:04:02;10.50;95.90
7970;DHT22;4030;52.362;9.206;2022-12-29T01:08:54;10.20;95.80
7970;DHT22;4030;52.362;9.206;2022-12-29T01:14:06;10.20;95.70
7970;DHT22;4030;52.362;9.206;2022-12-29T01:16:32;10.30;95.80
7970;DHT22;4030;52.362;9.206;2022-12-29T01:18:58;10.50;96.00
7970;DHT22;4030;52.362;9.206;2022-12-29T01:23:50;10.30;95.90
7970;DHT22;4030;52.362;9.206;2022-12-29T01:26:17;10.40;95.90
7970;DHT22;4030;52.362;9.206;2022-12-29T01:31:12;10.30;95.90
7970;DHT22;4030;52.362;9.206;2022-12-29T01:36:08;10.20;95.90
7970;DHT22;4030;52.362;9.206;2022-12-29T01:38:36;10.80;96.20
7970;DHT22;4030;52.362;9.206;2022-12-29T01:41:04;10.30;96.00
7970;DHT22;4030;52.362;9.206;2022-12-29T01:43:56;10.40;95.90
7970;DHT22;4030;52.362;9.206;2022-12-29T01:46:33;10.60;96.10
7970;DHT22;4030;52.362;9.206;2022-12-29T01:51:35;10.40;96.00
7970;DHT22;4030;52.362;9.206;2022-12-29T01:54:08;10.40;95.90
7970;DHT22;4030;52.362;9.206;2022-12-29T01:56:36;10.20;95.90
7970;DHT22;4030;52.362;9.206;2022-12-29T01:59:06;10.40;95.90
7970;DHT22;4030;52.362;9.206;2022-12-29T02:04:03;10.60;96.10
7970;DHT22;4030;52.362;9.206;2022-12-29T02:06:33;10.50;96.00
7970;DHT22;4030;52.362;9.206;2022-12-29T02:11:29;10.50;96.00
7970;DHT22;4030;52.362;9.206;2022-12-29T02:13:56;10.30;96.00
7970;DHT22;4030;52.362;9.206;2022-12-29T02:16:40;10.50;96.10
7970;DHT22;4030;52.362;9.206;2022-12-29T02:22:31;10.60;96.30
7970;DHT22;4030;52.362;9.206;2022-12-29T02:29:08;10.40;96.30
7970;DHT22;4030;52.362;9.206;2022-12-29T02:31:55;10.60;96.40
7970;DHT22;4030;52.362;9.206;2022-12-29T02:34:55;10.80;96.60
7970;DHT22;4030;52.362;9.206;2022-12-29T02:38:00;10.60;96.50
7970;DHT22;4030;52.362;9.206;2022-12-29T02:41:01;10.30;96.50
7970;DHT22;4030;52.362;9.206;2022-12-29T02:43:51;10.60;96.60
7970;DHT22;4030;52.362;9.206;2022-12-29T02:46:47;10.40;96.60
7970;DHT22;4030;52.362;9.206;2022-12-29T02:49:25;10.60;96.60
7970;DHT22;4030;52.362;9.206;2022-12-29T02:52:05;10.70;96.60
7970;DHT22;4030;52.362;9.206;2022-12-29T02:59:53;10.50;96.80
7970;DHT22;4030;52.362;9.206;2022-12-29T03:08:14;10.70;97.00
7970;DHT22;4030;52.362;9.206;2022-12-29T03:13:32;10.50;97.00
7970;DHT22;4030;52.362;9.206;2022-12-29T03:21:39;10.50;97.00
7970;DHT22;4030;52.362;9.206;2022-12-29T03:24:29;10.60;97.20
7970;DHT22;4030;52.362;9.206;2022-12-29T03:26:58;10.60;97.10
7970;DHT22;4030;52.362;9.206;2022-12-29T03:29:27;10.70;97.10
7970;DHT22;4030;52.362;9.206;2022-12-29T03:31:55;10.70;97.10
7970;DHT22;4030;52.362;9.206;2022-12-29T03:34:22;10.80;97.30
7970;DHT22;4030;52.362;9.206;2022-12-29T03:36:57;10.80;97.20
7970;DHT22;4030;52.362;9.206;2022-12-29T03:39:26;10.60;97.20
7970;DHT22;4030;52.362;9.206;2022-12-29T03:41:59;10.60;97.20
7970;DHT22;4030;52.362;9.206;2022-12-29T03:44:39;10.60;97.20
7970;DHT22;4030;52.362;9.206;2022-12-29T03:47:07;10.80;97.10
7970;DHT22;4030;52.362;9.206;2022-12-29T03:49:33;10.80;97.10
7970;DHT22;4030;52.362;9.206;2022-12-29T03:51:59;10.80;97.10
7970;DHT22;4030;52.362;9.206;2022-12-29T03:54:25;10.80;97.10
7970;DHT22;4030;52.362;9.206;2022-12-29T03:56:50;11.00;97.10
7970;DHT22;4030;52.362;9.206;2022-12-29T03:59:16;10.90;97.00
7970;DHT22;4030;52.362;9.206;2022-12-29T04:04:08;11.10;96.90
7970;DHT22;4030;52.362;9.206;2022-12-29T04:23:37;10.90;96.40
7970;DHT22;4030;52.362;9.206;2022-12-29T04:26:04;10.90;96.30
7970;DHT22;4030;52.362;9.206;2022-12-29T04:30:59;10.90;96.20
7970;DHT22;4030;52.362;9.206;2022-12-29T04:33:25;10.80;96.20
7970;DHT22;4030;52.362;9.206;2022-12-29T04:38:19;10.80;96.10
7970;DHT22;4030;52.362;9.206;2022-12-29T04:40:46;11.00;96.00
7970;DHT22;4030;52.362;9.206;2022-12-29T04:43:12;11.20;96.20
7970;DHT22;4030;52.362;9.206;2022-12-29T04:53:05;11.20;95.90
7970;DHT22;4030;52.362;9.206;2022-12-29T05:07:41;11.10;95.60
7970;DHT22;4030;52.362;9.206;2022-12-29T05:10:08;11.10;95.50
7970;DHT22;4030;52.362;9.206;2022-12-29T05:12:35;11.20;95.60
7970;DHT22;4030;52.362;9.206;2022-12-29T05:15:02;11.10;95.50
7970;DHT22;4030;52.362;9.206;2022-12-29T05:17:29;10.80;95.40
7970;DHT22;4030;52.362;9.206;2022-12-29T05:19:54;11.20;95.60
7970;DHT22;4030;52.362;9.206;2022-12-29T05:22:20;11.00;95.50
7970;DHT22;4030;52.362;9.206;2022-12-29T05:24:46;10.90;95.40
7970;DHT22;4030;52.362;9.206;2022-12-29T05:27:12;11.00;95.50
7970;DHT22;4030;52.362;9.206;2022-12-29T05:44:14;11.40;96.10
7970;DHT22;4030;52.362;9.206;2022-12-29T06:25:38;11.00;96.90
7970;DHT22;4030;52.362;9.206;2022-12-29T06:30:33;10.70;96.80
7970;DHT22;4030;52.362;9.206;2022-12-29T06:32:59;10.60;96.80
7970;DHT22;4030;52.362;9.206;2022-12-29T06:35:25;10.90;96.90
7970;DHT22;4030;52.362;9.206;2022-12-29T06:37:51;10.90;96.90
7970;DHT22;4030;52.362;9.206;2022-12-29T06:40:16;10.90;97.00
7970;DHT22;4030;52.362;9.206;2022-12-29T06:42:42;10.90;96.90
7970;DHT22;4030;52.362;9.206;2022-12-29T06:47:34;10.90;96.80
7970;DHT22;4030;52.362;9.206;2022-12-29T06:50:00;10.90;96.80
7970;DHT22;4030;52.362;9.206;2022-12-29T06:52:26;10.70;96.70
7970;DHT22;4030;52.362;9.206;2022-12-29T06:57:20;10.90;96.70
7970;DHT22;4030;52.362;9.206;2022-12-29T07:02:13;10.70;96.60
7970;DHT22;4030;52.362;9.206;2022-12-29T07:48:35;10.30;96.70
7970;DHT22;4030;52.362;9.206;2022-12-29T07:51:01;10.30;96.70
7970;DHT22;4030;52.362;9.206;2022-12-29T07:55:53;10.30;96.70
7970;DHT22;4030;52.362;9.206;2022-12-29T08:03:11;10.80;96.90
7970;DHT22;4030;52.362;9.206;2022-12-29T08:05:36;10.40;96.70
7970;DHT22;4030;52.362;9.206;2022-12-29T08:12:54;10.40;96.60
7970;DHT22;4030;52.362;9.206;2022-12-29T08:17:46;10.50;96.70
7970;DHT22;4030;52.362;9.206;2022-12-29T08:20:11;10.20;96.60
7970;DHT22;4030;52.362;9.206;2022-12-29T08:22:37;10.60;96.70
7970;DHT22;4030;52.362;9.206;2022-12-29T08:27:29;10.70;96.90
7970;DHT22;4030;52.362;9.206;2022-12-29T08:29:55;10.30;96.90
7970;DHT22;4030;52.362;9.206;2022-12-29T08:44:31;10.70;96.70
7970;DHT22;4030;52.362;9.206;2022-12-29T08:59:07;10.50;96.00
7970;DHT22;4030;52.362;9.206;2022-12-29T09:08:54;10.50;95.80
7970;DHT22;4030;52.362;9.206;2022-12-29T09:11:22;10.60;95.70
7970;DHT22;4030;52.362;9.206;2022-12-29T09:13:49;10.70;95.70
7970;DHT22;4030;52.362;9.206;2022-12-29T09:16:15;10.70;95.70
7970;DHT22;4030;52.362;9.206;2022-12-29T09:18:42;11.00;95.10
7970;DHT22;4030;52.362;9.206;2022-12-29T09:21:10;11.30;95.00
7970;DHT22;4030;52.362;9.206;2022-12-29T09:26:03;11.50;94.40
7970;DHT22;4030;52.362;9.206;2022-12-29T09:30:56;11.70;94.00
7970;DHT22;4030;52.362;9.206;2022-12-29T09:33:23;11.80;93.60
7970;DHT22;4030;52.362;9.206;2022-12-29T09:35:57;11.70;93.90
7970;DHT22;4030;52.362;9.206;2022-12-29T09:38:24;13.60;92.60
7970;DHT22;4030;52.362;9.206;2022-12-29T09:40:53;15.20;88.90
7970;DHT22;4030;52.362;9.206;2022-12-29T09:49:06;17.00;80.00
7970;DHT22;4030;52.362;9.206;2022-12-29T09:51:38;18.40;76.40
7970;DHT22;4030;52.362;9.206;2022-12-29T09:54:31;19.90;70.90
7970;DHT22;4030;52.362;9.206;2022-12-29T09:57:02;21.80;63.50
7970;DHT22;4030;52.362;9.206;2022-12-29T09:59:42;23.00;58.00
7970;DHT22;4030;52.362;9.206;2022-12-29T10:02:38;24.20;54.10
7970;DHT22;4030;52.362;9.206;2022-12-29T10:05:27;24.00;52.60
7970;DHT22;4030;52.362;9.206;2022-12-29T10:17:01;21.40;56.30
7970;DHT22;4030;52.362;9.206;2022-12-29T10:20:16;20.80;58.10
7970;DHT22;4030;52.362;9.206;2022-12-29T10:22:57;20.40;58.90
7970;DHT22;4030;52.362;9.206;2022-12-29T10:25:46;20.90;59.50
7970;DHT22;4030;52.362;9.206;2022-12-29T10:29:18;21.10;59.20
7970;DHT22;4030;52.362;9.206;2022-12-29T10:31:59;21.60;58.40
7970;DHT22;4030;52.362;9.206;2022-12-29T10:34:38;21.90;57.90
7970;DHT22;4030;52.362;9.206;2022-12-29T10:37:12;21.90;57.10
7970;DHT22;4030;52.362;9.206;2022-12-29T10:40:09;21.60;57.50
7970;DHT22;4030;52.362;9.206;2022-12-29T10:42:43;21.10;58.10
7970;DHT22;4030;52.362;9.206;2022-12-29T10:45:16;20.90;59.00
7970;DHT22;4030;52.362;9.206;2022-12-29T10:47:52;20.40;60.00
7970;DHT22;4030;52.362;9.206;2022-12-29T10:50:22;20.20;61.20
7970;DHT22;4030;52.362;9.206;2022-12-29T10:55:22;22.00;59.30
7970;DHT22;4030;52.362;9.206;2022-12-29T10:57:54;23.40;55.20
7970;DHT22;4030;52.362;9.206;2022-12-29T11:05:54;29.60;41.30
7970;DHT22;4030;52.362;9.206;2022-12-29T11:08:30;31.30;37.20
7970;DHT22;4030;52.362;9.206;2022-12-29T11:11:01;32.50;35.00
7970;DHT22;4030;52.362;9.206;2022-12-29T11:13:31;33.60;33.10
7970;DHT22;4030;52.362;9.206;2022-12-29T11:15:59;34.00;31.10
7970;DHT22;4030;52.362;9.206;2022-12-29T11:18:38;33.00;32.00
7970;DHT22;4030;52.362;9.206;2022-12-29T11:21:27;33.60;31.10
7970;DHT22;4030;52.362;9.206;2022-12-29T11:24:24;33.90;30.00
7970;DHT22;4030;52.362;9.206;2022-12-29T11:27:09;33.50;30.10
7970;DHT22;4030;52.362;9.206;2022-12-29T11:29:41;31.30;32.70
7970;DHT22;4030;52.362;9.206;2022-12-29T11:32:28;28.90;36.30
7970;DHT22;4030;52.362;9.206;2022-12-29T11:34:58;26.90;39.80
7970;DHT22;4030;52.362;9.206;2022-12-29T11:37:28;25.50;42.40
7970;DHT22;4030;52.362;9.206;2022-12-29T11:42:35;22.70;46.70
7970;DHT22;4030;52.362;9.206;2022-12-29T11:45:27;21.50;48.70
7970;DHT22;4030;52.362;9.206;2022-12-29T11:48:00;20.50;50.70
7970;DHT22;4030;52.362;9.206;2022-12-29T11:50:30;19.80;52.20
7970;DHT22;4030;52.362;9.206;2022-12-29T11:53:03;19.30;53.50
7970;DHT22;4030;52.362;9.206;2022-12-29T11:58:00;18.10;56.00
7970;DHT22;4030;52.362;9.206;2022-12-29T12:00:31;17.70;56.90
7970;DHT22;4030;52.362;9.206;2022-12-29T12:06:02;17.10;59.10
7970;DHT22;4030;52.362;9.206;2022-12-29T12:08:33;16.90;59.80
7970;DHT22;4030;52.362;9.206;2022-12-29T12:11:20;16.60;60.70
7970;DHT22;4030;52.362;9.206;2022-12-29T12:13:59;16.30;61.90
7970;DHT22;4030;52.362;9.206;2022-12-29T12:16:39;16.20;63.10
7970;DHT22;4030;52.362;9.206;2022-12-29T12:21:59;15.70;64.80
7970;DHT22;4030;52.362;9.206;2022-12-29T12:24:39;15.50;65.60
7970;DHT22;4030;52.362;9.206;2022-12-29T12:27:37;15.40;66.40
7970;DHT22;4030;52.362;9.206;2022-12-29T12:30:18;15.20;67.50
7970;DHT22;4030;52.362;9.206;2022-12-29T12:35:37;15.00;69.10
7970;DHT22;4030;52.362;9.206;2022-12-29T12:38:45;14.70;69.30
7970;DHT22;4030;52.362;9.206;2022-12-29T12:47:47;14.50;70.70
7970;DHT22;4030;52.362;9.206;2022-12-29T12:50:35;14.20;71.00
7970;DHT22;4030;52.362;9.206;2022-12-29T12:53:22;14.40;71.70
7970;DHT22;4030;52.362;9.206;2022-12-29T12:56:07;14.10;72.20
7970;DHT22;4030;52.362;9.206;2022-12-29T13:10:42;13.90;73.70
7970;DHT22;4030;52.362;9.206;2022-12-29T13:16:07;13.80;74.00
7970;DHT22;4030;52.362;9.206;2022-12-29T13:18:59;13.60;74.20
7970;DHT22;4030;52.362;9.206;2022-12-29T13:24:21;13.60;74.60
7970;DHT22;4030;52.362;9.206;2022-12-29T13:27:39;13.50;74.40
7970;DHT22;4030;52.362;9.206;2022-12-29T13:30:17;13.50;74.60
7970;DHT22;4030;52.362;9.206;2022-12-29T13:38:24;13.40;75.00
7970;DHT22;4030;52.362;9.206;2022-12-29T13:41:03;13.30;75.30
7970;DHT22;4030;52.362;9.206;2022-12-29T13:43:34;13.30;75.60
7970;DHT22;4030;52.362;9.206;2022-12-29T13:46:12;13.30;75.70
7970;DHT22;4030;52.362;9.206;2022-12-29T13:48:51;13.20;76.00
7970;DHT22;4030;52.362;9.206;2022-12-29T13:51:20;13.20;76.20
7970;DHT22;4030;52.362;9.206;2022-12-29T13:56:50;13.00;76.70
7970;DHT22;4030;52.362;9.206;2022-12-29T13:59:50;13.20;78.30
7970;DHT22;4030;52.362;9.206;2022-12-29T14:07:49;13.10;78.70
7970;DHT22;4030;52.362;9.206;2022-12-29T14:10:36;13.10;78.70
7970;DHT22;4030;52.362;9.206;2022-12-29T14:13:12;13.00;78.60
7970;DHT22;4030;52.362;9.206;2022-12-29T14:15:43;13.00;78.60
7970;DHT22;4030;52.362;9.206;2022-12-29T14:21:00;13.00;78.90
7970;DHT22;4030;52.362;9.206;2022-12-29T14:23:39;13.10;79.20
7970;DHT22;4030;52.362;9.206;2022-12-29T14:28:46;12.90;78.90
7970;DHT22;4030;52.362;9.206;2022-12-29T14:36:37;12.70;79.30
7970;DHT22;4030;52.362;9.206;2022-12-29T14:39:30;12.80;79.50
7970;DHT22;4030;52.362;9.206;2022-12-29T14:44:56;12.70;79.90
7970;DHT22;4030;52.362;9.206;2022-12-29T14:47:37;12.70;80.00
7970;DHT22;4030;52.362;9.206;2022-12-29T14:50:11;12.70;80.10
7970;DHT22;4030;52.362;9.206;2022-12-29T14:58:04;12.70;80.10
7970;DHT22;4030;52.362;9.206;2022-12-29T15:00:34;12.60;80.10
7970;DHT22;4030;52.362;9.206;2022-12-29T15:03:18;12.60;80.10
7970;DHT22;4030;52.362;9.206;2022-12-29T15:06:15;12.70;80.40
7970;DHT22;4030;52.362;9.206;2022-12-29T15:08:50;12.60;80.30
7970;DHT22;4030;52.362;9.206;2022-12-29T15:11:20;12.50;80.30
7970;DHT22;4030;52.362;9.206;2022-12-29T15:13:48;12.50;80.30
7970;DHT22;4030;52.362;9.206;2022-12-29T15:16:32;12.30;80.40
7970;DHT22;4030;52.362;9.206;2022-12-29T15:21:33;12.40;80.70
7970;DHT22;4030;52.362;9.206;2022-12-29T15:24:00;12.30;80.70
7970;DHT22;4030;52.362;9.206;2022-12-29T15:26:42;12.40;81.00
7970;DHT22;4030;52.362;9.206;2022-12-29T15:29:40;12.30;81.10
7970;DHT22;4030;52.362;9.206;2022-12-29T15:34:44;12.30;81.10
7970;DHT22;4030;52.362;9.206;2022-12-29T15:37:22;12.30;81.50
7970;DHT22;4030;52.362;9.206;2022-12-29T15:39:53;12.20;81.30
7970;DHT22;4030;52.362;9.206;2022-12-29T15:42:49;12.20;81.80
7970;DHT22;4030;52.362;9.206;2022-12-29T15:47:45;12.30;84.90
7970;DHT22;4030;52.362;9.206;2022-12-29T15:55:24;13.00;90.00
7970;DHT22;4030;52.362;9.206;2022-12-29T15:57:58;12.30;89.20
7970;DHT22;4030;52.362;9.206;2022-12-29T16:00:33;12.20;88.70
7970;DHT22;4030;52.362;9.206;2022-12-29T16:03:04;12.30;88.50
7970;DHT22;4030;52.362;9.206;2022-12-29T16:05:35;12.20;88.00
7970;DHT22;4030;52.362;9.206;2022-12-29T16:08:03;12.40;88.20
7970;DHT22;4030;52.362;9.206;2022-12-29T16:10:42;12.30;87.80
7970;DHT22;4030;52.362;9.206;2022-12-29T16:15:46;12.40;87.70
7970;DHT22;4030;52.362;9.206;2022-12-29T16:18:29;12.30;87.50
7970;DHT22;4030;52.362;9.206;2022-12-29T16:23:27;12.10;86.90
7970;DHT22;4030;52.362;9.206;2022-12-29T16:25:55;12.20;86.90
7970;DHT22;4030;52.362;9.206;2022-12-29T16:28:38;12.00;86.80
7970;DHT22;4030;52.362;9.206;2022-12-29T16:31:18;12.10;86.80
7970;DHT22;4030;52.362;9.206;2022-12-29T16:33:49;12.10;86.80
7970;DHT22;4030;52.362;9.206;2022-12-29T16:36:27;12.00;86.70
7970;DHT22;4030;52.362;9.206;2022-12-29T16:39:23;12.10;86.90
7970;DHT22;4030;52.362;9.206;2022-12-29T16:41:52;15.60;90.20
7970;DHT22;4030;52.362;9.206;2022-12-29T16:44:27;12.10;87.10
7970;DHT22;4030;52.362;9.206;2022-12-29T16:49:39;11.80;86.80
7970;DHT22;4030;52.362;9.206;2022-12-29T16:52:16;11.90;86.70
7970;DHT22;4030;52.362;9.206;2022-12-29T16:54:51;11.90;86.90
7970;DHT22;4030;52.362;9.206;2022-12-29T16:57:29;11.80;87.60
7970;DHT22;4030;52.362;9.206;2022-12-29T17:00:00;11.80;87.90
7970;DHT22;4030;52.362;9.206;2022-12-29T17:02:30;11.90;88.00
7970;DHT22;4030;52.362;9.206;2022-12-29T17:04:57;11.90;87.90
7970;DHT22;4030;52.362;9.206;2022-12-29T17:07:25;11.90;87.70
7970;DHT22;4030;52.362;9.206;2022-12-29T17:12:26;11.90;87.60
7970;DHT22;4030;52.362;9.206;2022-12-29T17:17:30;11.80;87.20
7970;DHT22;4030;52.362;9.206;2022-12-29T17:20:02;11.90;87.40
7970;DHT22;4030;52.362;9.206;2022-12-29T17:24:58;12.00;87.40
7970;DHT22;4030;52.362;9.206;2022-12-29T17:27:37;11.90;87.20
7970;DHT22;4030;52.362;9.206;2022-12-29T17:30:13;11.70;87.10
7970;DHT22;4030;52.362;9.206;2022-12-29T17:32:42;11.70;87.00
7970;DHT22;4030;52.362;9.206;2022-12-29T17:35:19;11.60;87.10
7970;DHT22;4030;52.362;9.206;2022-12-29T17:37:47;11.70;87.10
7970;DHT22;4030;52.362;9.206;2022-12-29T17:40:21;11.50;87.00
7970;DHT22;4030;52.362;9.206;2022-12-29T17:42:53;11.90;87.60
7970;DHT22;4030;52.362;9.206;2022-12-29T17:45:39;11.50;87.20
7970;DHT22;4030;52.362;9.206;2022-12-29T17:48:11;11.60;87.50
7970;DHT22;4030;52.362;9.206;2022-12-29T17:53:06;11.60;87.80
7970;DHT22;4030;52.362;9.206;2022-12-29T18:00:39;11.50;88.40
7970;DHT22;4030;52.362;9.206;2022-12-29T18:03:07;11.60;88.70
7970;DHT22;4030;52.362;9.206;2022-12-29T18:05:33;11.70;89.00
7970;DHT22;4030;52.362;9.206;2022-12-29T18:07:59;11.60;89.10
7970;DHT22;4030;52.362;9.206;2022-12-29T18:10:27;11.50;89.00
7970;DHT22;4030;52.362;9.206;2022-12-29T18:12:58;11.40;89.00
7970;DHT22;4030;52.362;9.206;2022-12-29T18:15:27;11.40;89.10
7970;DHT22;4030;52.362;9.206;2022-12-29T18:20:26;11.20;89.20
7970;DHT22;4030;52.362;9.206;2022-12-29T18:25:20;11.60;89.80
7970;DHT22;4030;52.362;9.206;2022-12-29T18:27:48;11.30;89.60
7970;DHT22;4030;52.362;9.206;2022-12-29T18:30:14;11.30;89.80
7970;DHT22;4030;52.362;9.206;2022-12-29T18:32:41;11.40;89.90
7970;DHT22;4030;52.362;9.206;2022-12-29T18:35:17;11.20;89.70
7970;DHT22;4030;52.362;9.206;2022-12-29T18:40:11;11.20;89.90
7970;DHT22;4030;52.362;9.206;2022-12-29T18:45:17;11.10;89.80
7970;DHT22;4030;52.362;9.206;2022-12-29T18:47:43;11.20;90.00
7970;DHT22;4030;52.362;9.206;2022-12-29T18:52:35;11.00;90.00
7970;DHT22;4030;52.362;9.206;2022-12-29T19:12:13;10.90;90.00
7970;DHT22;4030;52.362;9.206;2022-12-29T19:14:40;10.70;90.00
7970;DHT22;4030;52.362;9.206;2022-12-29T19:17:12;10.90;90.10
7970;DHT22;4030;52.362;9.206;2022-12-29T19:19:40;10.80;90.00
7970;DHT22;4030;52.362;9.206;2022-12-29T19:29:25;10.70;90.00
7970;DHT22;4030;52.362;9.206;2022-12-29T19:31:51;11.00;90.10
7970;DHT22;4030;52.362;9.206;2022-12-29T19:34:17;10.80;90.00
7970;DHT22;4030;52.362;9.206;2022-12-29T19:36:44;10.80;90.00
7970;DHT22;4030;52.362;9.206;2022-12-29T19:39:10;10.80;89.90
7970;DHT22;4030;52.362;9.206;2022-12-29T19:51:23;10.80;89.60
7970;DHT22;4030;52.362;9.206;2022-12-29T19:56:15;10.70;89.30
7970;DHT22;4030;52.362;9.206;2022-12-29T20:01:11;10.50;88.90
7970;DHT22;4030;52.362;9.206;2022-12-29T20:03:38;10.70;89.20
7970;DHT22;4030;52.362;9.206;2022-12-29T20:06:06;10.60;88.90
7970;DHT22;4030;52.362;9.206;2022-12-29T20:08:33;10.90;89.10
7970;DHT22;4030;52.362;9.206;2022-12-29T20:11:08;10.60;88.60
7970;DHT22;4030;52.362;9.206;2022-12-29T20:13:39;10.40;88.30
7970;DHT22;4030;52.362;9.206;2022-12-29T20:16:08;10.60;88.50
7970;DHT22;4030;52.362;9.206;2022-12-29T20:21:12;10.70;88.40
7970;DHT22;4030;52.362;9.206;2022-12-29T20:23:41;10.60;88.30
7970;DHT22;4030;52.362;9.206;2022-12-29T20:26:10;10.60;88.40
7970;DHT22;4030;52.362;9.206;2022-12-29T20:28:37;10.60;88.30
7970;DHT22;4030;52.362;9.206;2022-12-29T20:31:06;10.50;88.30
7970;DHT22;4030;52.362;9.206;2022-12-29T20:36:10;10.60;90.20
7970;DHT22;4030;52.362;9.206;2022-12-29T20:38:39;10.70;91.40
7970;DHT22;4030;52.362;9.206;2022-12-29T20:43:33;10.70;91.80
7970;DHT22;4030;52.362;9.206;2022-12-29T20:45:58;10.60;91.50
7970;DHT22;4030;52.362;9.206;2022-12-29T20:53:18;10.50;90.90
7970;DHT22;4030;52.362;9.206;2022-12-29T20:55:43;10.60;90.80
7970;DHT22;4030;52.362;9.206;2022-12-29T20:58:09;10.60;90.60
7970;DHT22;4030;52.362;9.206;2022-12-29T21:00:35;10.50;90.40
7970;DHT22;4030;52.362;9.206;2022-12-29T21:05:28;10.60;90.20
7970;DHT22;4030;52.362;9.206;2022-12-29T21:07:54;10.50;90.00
7970;DHT22;4030;52.362;9.206;2022-12-29T21:10:20;10.40;90.00
7970;DHT22;4030;52.362;9.206;2022-12-29T21:12:46;10.70;90.00
7970;DHT22;4030;52.362;9.206;2022-12-29T21:15:13;10.50;89.80
7970;DHT22;4030;52.362;9.206;2022-12-29T21:20:07;10.40;89.20
7970;DHT22;4030;52.362;9.206;2022-12-29T21:22:33;10.60;89.10
7970;DHT22;4030;52.362;9.206;2022-12-29T21:24:59;10.50;87.30
7970;DHT22;4030;52.362;9.206;2022-12-29T21:27:24;10.30;86.60
7970;DHT22;4030;52.362;9.206;2022-12-29T21:34:42;10.50;87.20
7970;DHT22;4030;52.362;9.206;2022-12-29T21:44:26;10.40;87.90
7970;DHT22;4030;52.362;9.206;2022-12-29T21:49:37;10.20;87.80
7970;DHT22;4030;52.362;9.206;2022-12-29T21:54:29;10.60;88.40
7970;DHT22;4030;52.362;9.206;2022-12-29T21:57:16;10.20;87.90
7970;DHT22;4030;52.362;9.206;2022-12-29T22:00:06;10.20;87.90
7970;DHT22;4030;52.362;9.206;2022-12-29T22:02:52;10.10;87.80
7970;DHT22;4030;52.362;9.206;2022-12-29T22:08:21;10.40;88.00
7970;DHT22;4030;52.362;9.206;2022-12-29T22:11:07;10.20;87.70
7970;DHT22;4030;52.362;9.206;2022-12-29T22:13:51;10.10;87.70
7970;DHT22;4030;52.362;9.206;2022-12-29T22:16:22;10.30;87.90
7970;DHT22;4030;52.362;9.206;2022-12-29T22:18:49;10.10;87.80
7970;DHT22;4030;52.362;9.206;2022-12-29T22:21:14;10.40;87.90
7970;DHT22;4030;52.362;9.206;2022-12-29T22:26:09;10.40;88.10
7970;DHT22;4030;52.362;9.206;2022-12-29T22:28:40;10.30;87.80
7970;DHT22;4030;52.362;9.206;2022-12-29T22:31:25;10.00;87.70
7970;DHT22;4030;52.362;9.206;2022-12-29T22:33:56;10.20;87.80
7970;DHT22;4030;52.362;9.206;2022-12-29T22:36:24;10.10;87.80
7970;DHT22;4030;52.362;9.206;2022-12-29T22:38:50;10.20;87.90
7970;DHT22;4030;52.362;9.206;2022-12-29T22:41:16;10.10;87.90
7970;DHT22;4030;52.362;9.206;2022-12-29T22:43:42;10.40;88.30
7970;DHT22;4030;52.362;9.206;2022-12-29T22:46:08;10.20;87.90
7970;DHT22;4030;52.362;9.206;2022-12-29T22:48:35;10.40;88.20
7970;DHT22;4030;52.362;9.206;2022-12-29T22:51:01;10.20;87.90
7970;DHT22;4030;52.362;9.206;2022-12-29T22:53:27;10.00;87.80
7970;DHT22;4030;52.362;9.206;2022-12-29T22:56:04;10.30;88.30
7970;DHT22;4030;52.362;9.206;2022-12-29T23:03:29;10.20;88.10
7970;DHT22;4030;52.362;9.206;2022-12-29T23:05:59;10.10;88.10
7970;DHT22;4030;52.362;9.206;2022-12-29T23:08:27;10.20;88.00
7970;DHT22;4030;52.362;9.206;2022-12-29T23:13:21;10.10;88.10
7970;DHT22;4030;52.362;9.206;2022-12-29T23:18:13;10.30;88.30
7970;DHT22;4030;52.362;9.206;2022-12-29T23:20:40;10.10;88.10
7970;DHT22;4030;52.362;9.206;2022-12-29T23:23:06;10.20;88.30
7970;DHT22;4030;52.362;9.206;2022-12-29T23:25:34;10.20;88.30
7970;DHT22;4030;52.362;9.206;2022-12-29T23:30:27;10.10;88.30
7970;DHT22;4030;52.362;9.206;2022-12-29T23:32:53;10.00;87.90
7970;DHT22;4030;52.362;9.206;2022-12-29T23:45:04;10.20;88.10
7970;DHT22;4030;52.362;9.206;2022-12-29T23:47:30;10.00;88.00
7970;DHT22;4030;52.362;9.206;2022-12-29T23:57:14;10.00;87.90
7970;DHT22;4030;52.362;9.206;2022-12-29T23:59:40;10.20;88.20
